createdAt,value
2023-02-07T00:00:11.355Z,16.58
2023-02-07T00:03:16.356Z,15.50
2023-02-07T00:06:19.930Z,17.13
2023-02-07T00:09:22.448Z,16.98
2023-02-07T00:12:24.454Z,18.50
2023-02-07T00:15:26.592Z,19.38
2023-02-07T00:18:28.573Z,17.17
2023-02-07T00:21:30.862Z,17.40
2023-02-07T00:24:33.221Z,16.73
2023-02-07T00:27:35.327Z,17.63
2023-02-07T00:30:37.348Z,17.67
2023-02-07T00:33:40.283Z,17.70
2023-02-07T00:36:44.700Z,18.52
2023-02-07T00:39:47.089Z,18.52
2023-02-07T00:42:49.082Z,19.17
2023-02-07T00:45:51.681Z,22.48
2023-02-07T00:48:54.084Z,20.55
2023-02-07T00:51:56.468Z,16.70
2023-02-07T00:54:58.810Z,20.02
2023-02-07T00:58:01.267Z,18.13
2023-02-07T01:01:03.545Z,21.05
2023-02-07T01:04:07.176Z,19.40
2023-02-07T01:07:09.314Z,20.60
2023-02-07T01:10:11.974Z,20.52
2023-02-07T01:13:15.606Z,20.27
2023-02-07T01:16:27.304Z,23.35
2023-02-07T01:19:29.250Z,21.80
2023-02-07T01:22:33.006Z,20.20
2023-02-07T01:25:35.459Z,18.73
2023-02-07T01:28:39.476Z,20.88
2023-02-07T01:31:42.504Z,19.73
2023-02-07T01:34:44.605Z,20.25
2023-02-07T01:37:46.558Z,20.80
2023-02-07T01:40:48.585Z,21.98
2023-02-07T01:43:54.527Z,20.87
2023-02-07T01:46:56.613Z,20.92
2023-02-07T01:49:59.887Z,21.02
2023-02-07T01:53:02.402Z,20.00
2023-02-07T01:56:07.029Z,20.55
2023-02-07T01:59:09.012Z,20.83
2023-02-07T02:02:11.274Z,21.70
2023-02-07T02:05:13.574Z,18.75
2023-02-07T02:08:15.912Z,20.80
2023-02-07T02:11:20.799Z,21.35
2023-02-07T02:14:22.748Z,21.37
2023-02-07T02:17:31.118Z,21.80
2023-02-07T02:20:36.567Z,20.40
2023-02-07T02:23:50.420Z,19.90
2023-02-07T02:26:52.384Z,18.70
2023-02-07T02:30:12.475Z,19.13
2023-02-07T02:33:17.284Z,17.52
2023-02-07T02:36:31.445Z,16.13
2023-02-07T02:39:36.417Z,16.55
2023-02-07T02:42:42.660Z,14.18
2023-02-07T02:46:05.371Z,16.93
2023-02-07T02:49:08.173Z,16.17
2023-02-07T02:52:10.714Z,15.95
2023-02-07T02:55:13.145Z,15.60
2023-02-07T02:58:21.330Z,16.10
2023-02-07T03:01:42.077Z,16.05
2023-02-07T03:04:56.903Z,14.48
2023-02-07T03:08:03.631Z,14.70
2023-02-07T03:11:08.107Z,14.40
2023-02-07T03:14:13.802Z,15.05
2023-02-07T03:17:25.387Z,15.93
2023-02-07T03:20:30.584Z,16.55
2023-02-07T03:23:33.151Z,15.75
2023-02-07T03:26:36.183Z,15.10
2023-02-07T03:29:39.571Z,16.30
2023-02-07T03:32:42.807Z,16.00
2023-02-07T03:35:49.370Z,16.27
2023-02-07T03:38:51.509Z,15.18
2023-02-07T03:41:54.657Z,15.13
2023-02-07T03:44:56.990Z,15.55
2023-02-07T03:47:59.246Z,14.67
2023-02-07T03:51:01.243Z,15.63
2023-02-07T03:54:03.957Z,14.75
2023-02-07T03:57:06.021Z,16.47
2023-02-07T04:00:08.400Z,15.15
2023-02-07T04:03:17.461Z,14.40
2023-02-07T04:06:19.711Z,17.20
2023-02-07T04:09:21.693Z,13.95
2023-02-07T04:12:23.822Z,16.30
2023-02-07T04:15:26.323Z,15.07
2023-02-07T04:18:28.684Z,14.20
2023-02-07T04:21:30.766Z,14.13
2023-02-07T04:24:32.734Z,13.70
2023-02-07T04:27:35.252Z,15.43
2023-02-07T04:30:37.637Z,14.52
2023-02-07T04:33:39.814Z,16.10
2023-02-07T04:36:41.839Z,13.55
2023-02-07T04:39:44.434Z,15.52
2023-02-07T04:42:46.893Z,17.30
2023-02-07T04:45:49.329Z,15.82
2023-02-07T04:48:55.141Z,16.27
2023-02-07T04:51:57.232Z,15.75
2023-02-07T04:54:59.306Z,14.45
2023-02-07T04:58:01.322Z,14.70
2023-02-07T05:01:03.542Z,16.08
2023-02-07T05:04:05.633Z,15.48
2023-02-07T05:07:07.678Z,15.90
2023-02-07T05:10:10.303Z,14.07
2023-02-07T05:13:12.849Z,14.63
2023-02-07T05:16:15.165Z,14.45
2023-02-07T05:19:17.698Z,14.20
2023-02-07T05:22:20.209Z,14.52
2023-02-07T05:25:22.201Z,17.92
2023-02-07T05:28:24.278Z,22.87
2023-02-07T05:31:46.499Z,21.40
2023-02-07T05:34:48.599Z,20.30
2023-02-07T05:37:50.826Z,19.45
2023-02-07T05:40:53.447Z,18.80
2023-02-07T05:43:55.644Z,20.40
2023-02-07T05:47:00.223Z,17.98
2023-02-07T05:50:04.114Z,18.60
2023-02-07T05:53:06.895Z,17.77
2023-02-07T05:56:08.945Z,18.48
2023-02-07T05:59:11.445Z,18.10
2023-02-07T06:02:13.925Z,18.50
2023-02-07T06:05:16.931Z,19.40
2023-02-07T06:08:19.261Z,16.45
2023-02-07T06:11:21.782Z,18.05
2023-02-07T06:14:24.332Z,17.58
2023-02-07T06:17:26.764Z,17.17
2023-02-07T06:20:28.916Z,17.67
2023-02-07T06:23:31.273Z,19.02
2023-02-07T06:26:33.407Z,17.15
2023-02-07T06:29:35.980Z,16.90
2023-02-07T06:32:38.494Z,17.30
2023-02-07T06:35:47.223Z,18.48
2023-02-07T06:38:49.817Z,21.00
2023-02-07T06:41:51.933Z,27.88
2023-02-07T06:44:54.252Z,32.65
2023-02-07T06:47:56.419Z,35.03
2023-02-07T06:50:58.570Z,39.03
2023-02-07T06:54:03.392Z,45.70
2023-02-07T06:57:05.775Z,67.85
2023-02-07T07:00:11.689Z,48.00
2023-02-07T07:03:14.708Z,40.78
2023-02-07T07:06:16.752Z,27.42
2023-02-07T07:09:19.262Z,20.63
2023-02-07T07:12:21.904Z,23.45
2023-02-07T07:15:24.924Z,27.50
2023-02-07T07:18:27.104Z,29.23
2023-02-07T07:21:29.580Z,24.47
2023-02-07T07:24:31.751Z,24.10
2023-02-07T07:27:34.290Z,24.52
2023-02-07T07:30:36.771Z,22.47
2023-02-07T07:33:39.866Z,23.65
2023-02-07T07:36:42.200Z,24.17
2023-02-07T07:39:44.706Z,21.98
2023-02-07T07:42:47.378Z,23.08
2023-02-07T07:46:04.737Z,23.48
2023-02-07T07:49:06.782Z,19.85
2023-02-07T07:52:08.758Z,19.97
2023-02-07T07:55:11.325Z,20.17
2023-02-07T07:58:14.182Z,19.23
2023-02-07T08:01:16.816Z,20.03
2023-02-07T08:04:19.294Z,17.05
2023-02-07T08:07:21.356Z,14.48
2023-02-07T08:10:23.957Z,15.52
2023-02-07T08:13:29.565Z,12.85
2023-02-07T08:16:31.777Z,14.38
2023-02-07T08:19:34.685Z,13.45
2023-02-07T08:22:36.887Z,12.63
2023-02-07T08:25:39.144Z,14.98
2023-02-07T08:28:41.737Z,14.85
2023-02-07T08:31:43.717Z,14.60
2023-02-07T08:34:46.430Z,12.88
2023-02-07T08:37:48.624Z,13.23
2023-02-07T08:40:51.800Z,13.48
2023-02-07T08:43:53.848Z,14.27
2023-02-07T08:46:55.921Z,13.68
2023-02-07T08:49:58.047Z,15.55
2023-02-07T08:53:00.598Z,15.87
2023-02-07T08:56:02.652Z,15.52
2023-02-07T08:59:05.027Z,13.55
2023-02-07T09:02:07.541Z,13.73
2023-02-07T09:05:10.472Z,14.73
2023-02-07T09:08:12.514Z,14.00
2023-02-07T09:11:15.637Z,13.75
2023-02-07T09:14:17.863Z,13.73
2023-02-07T09:17:20.031Z,12.65
2023-02-07T09:20:22.085Z,13.15
2023-02-07T09:23:24.344Z,13.20
2023-02-07T09:26:26.915Z,13.32
2023-02-07T09:29:29.085Z,12.85
2023-02-07T09:32:31.544Z,13.33
2023-02-07T09:35:38.756Z,12.38
2023-02-07T09:38:40.778Z,10.23
2023-02-07T09:41:52.830Z,9.93
2023-02-07T09:44:54.978Z,9.95
2023-02-07T09:48:02.215Z,11.98
2023-02-07T09:51:04.672Z,12.63
2023-02-07T09:54:27.565Z,9.60
2023-02-07T09:57:37.857Z,13.43
2023-02-07T10:00:40.828Z,15.65
2023-02-07T10:03:49.498Z,15.00
2023-02-07T10:06:53.454Z,15.75
2023-02-07T10:09:58.051Z,14.50
2023-02-07T10:13:07.468Z,11.60
2023-02-07T10:16:26.054Z,12.07
2023-02-07T10:19:37.170Z,12.73
2023-02-07T10:22:42.626Z,10.57
2023-02-07T10:25:51.789Z,12.53
2023-02-07T10:28:57.360Z,10.60
2023-02-07T10:32:00.016Z,9.55
2023-02-07T10:35:03.943Z,10.50
2023-02-07T10:38:11.673Z,8.88
2023-02-07T10:41:15.906Z,8.52
2023-02-07T10:44:20.708Z,19.90
2023-02-07T10:47:23.451Z,8.52
2023-02-07T10:50:30.124Z,11.00
2023-02-07T10:54:02.770Z,11.48
2023-02-07T10:57:05.263Z,8.50
2023-02-07T11:00:26.178Z,7.82
2023-02-07T11:03:28.317Z,6.80
2023-02-07T11:06:32.126Z,8.23
2023-02-07T11:09:37.948Z,8.65
2023-02-07T11:12:54.732Z,8.90
2023-02-07T11:15:58.747Z,8.38
2023-02-07T11:19:07.298Z,12.93
2023-02-07T11:22:10.350Z,11.98
2023-02-07T11:25:12.882Z,12.48
2023-02-07T11:28:33.140Z,11.43
2023-02-07T11:31:36.128Z,12.95
2023-02-07T11:34:42.816Z,13.00
2023-02-07T11:37:48.942Z,11.97
2023-02-07T11:40:52.441Z,11.73
2023-02-07T11:43:56.022Z,12.57
2023-02-07T11:46:59.418Z,11.65
2023-02-07T11:50:02.105Z,12.70
2023-02-07T11:53:04.776Z,13.55
2023-02-07T11:56:07.936Z,15.15
2023-02-07T11:59:15.585Z,14.23
2023-02-07T12:02:20.945Z,12.27
2023-02-07T12:05:24.282Z,11.18
2023-02-07T12:08:27.715Z,11.10
2023-02-07T12:11:34.030Z,10.82
2023-02-07T12:14:37.565Z,10.98
2023-02-07T12:17:52.625Z,13.85
2023-02-07T12:21:13.013Z,13.05
2023-02-07T12:24:17.211Z,13.80
2023-02-07T12:27:19.839Z,13.35
2023-02-07T12:30:32.089Z,14.27
2023-02-07T12:33:41.602Z,15.82
2023-02-07T12:36:46.383Z,16.33
2023-02-07T12:39:49.803Z,32.87
2023-02-07T12:42:54.555Z,18.05
2023-02-07T12:46:00.585Z,10.85
2023-02-07T12:49:11.559Z,12.05
2023-02-07T12:52:20.641Z,11.93
2023-02-07T12:55:23.143Z,10.73
2023-02-07T12:58:35.648Z,13.35
2023-02-07T13:01:40.123Z,12.40
2023-02-07T13:05:01.484Z,14.60
2023-02-07T13:08:03.475Z,11.63
2023-02-07T13:11:26.525Z,12.37
2023-02-07T13:14:28.583Z,11.93
2023-02-07T13:17:39.740Z,13.15
2023-02-07T13:20:51.304Z,13.27
2023-02-07T13:23:53.390Z,13.77
2023-02-07T13:26:57.245Z,14.23
2023-02-07T13:30:02.662Z,14.82
2023-02-07T13:33:41.071Z,11.87
2023-02-07T13:36:44.477Z,13.60
2023-02-07T13:40:02.614Z,11.73
2023-02-07T13:43:05.878Z,13.60
2023-02-07T13:46:12.537Z,15.05
2023-02-07T13:49:16.538Z,13.02
2023-02-07T13:52:33.690Z,14.30
2023-02-07T13:55:39.737Z,12.73
2023-02-07T13:59:00.614Z,14.65
2023-02-07T14:02:20.229Z,12.15
2023-02-07T14:05:28.039Z,14.53
2023-02-07T14:08:30.236Z,11.88
2023-02-07T14:11:34.612Z,12.13
2023-02-07T14:14:39.339Z,11.63
2023-02-07T14:17:44.318Z,12.23
2023-02-07T14:20:47.146Z,12.32
2023-02-07T14:23:49.764Z,12.95
2023-02-07T14:26:56.513Z,14.48
2023-02-07T14:30:02.086Z,12.45
2023-02-07T14:33:12.367Z,12.27
2023-02-07T14:36:14.559Z,13.80
2023-02-07T14:39:21.547Z,11.45
2023-02-07T14:42:24.103Z,11.32
2023-02-07T14:45:28.546Z,12.50
2023-02-07T14:48:34.218Z,12.10
2023-02-07T14:51:47.201Z,15.40
2023-02-07T14:54:58.064Z,14.73
2023-02-07T14:58:00.303Z,28.33
2023-02-07T15:01:02.464Z,19.45
2023-02-07T15:04:06.390Z,16.35
2023-02-07T15:07:11.281Z,19.33
2023-02-07T15:10:22.789Z,27.30
2023-02-07T15:13:25.203Z,28.17
2023-02-07T15:16:28.573Z,19.15
2023-02-07T15:19:33.949Z,120.80
2023-02-07T15:22:36.422Z,30.48
2023-02-07T15:25:39.971Z,14.15
2023-02-07T15:28:42.697Z,16.87
2023-02-07T15:31:45.331Z,16.20
2023-02-07T15:34:47.485Z,13.98
2023-02-07T15:37:50.113Z,16.42
2023-02-07T15:40:52.532Z,16.73
2023-02-07T15:43:59.617Z,13.82
2023-02-07T15:47:05.520Z,15.30
2023-02-07T15:50:25.253Z,14.57
2023-02-07T15:53:28.246Z,14.38
2023-02-07T15:56:30.568Z,14.63
2023-02-07T15:59:33.700Z,17.80
2023-02-07T16:02:36.379Z,16.75
2023-02-07T16:05:38.874Z,17.88
2023-02-07T16:08:41.762Z,18.48
2023-02-07T16:11:43.758Z,15.85
2023-02-07T16:14:46.092Z,17.33
2023-02-07T16:17:48.102Z,17.95
2023-02-07T16:20:50.569Z,17.80
2023-02-07T16:23:57.995Z,19.10
2023-02-07T16:27:11.280Z,18.38
2023-02-07T16:30:19.960Z,21.33
2023-02-07T16:33:22.182Z,21.60
2023-02-07T16:36:26.839Z,23.02
2023-02-07T16:39:29.386Z,23.20
2023-02-07T16:42:37.455Z,22.60
2023-02-07T16:45:40.211Z,22.83
2023-02-07T16:48:42.865Z,19.98
2023-02-07T16:51:46.568Z,23.17
2023-02-07T16:54:49.660Z,22.25
2023-02-07T16:57:53.389Z,21.73
2023-02-07T17:00:55.977Z,23.73
2023-02-07T17:04:03.490Z,22.13
2023-02-07T17:07:12.921Z,22.85
2023-02-07T17:10:27.752Z,23.98
2023-02-07T17:13:33.845Z,23.17
2023-02-07T17:16:40.911Z,24.88
2023-02-07T17:19:47.432Z,25.13
2023-02-07T17:22:52.481Z,25.13
2023-02-07T17:25:54.919Z,26.13
2023-02-07T17:29:02.538Z,26.65
2023-02-07T17:32:15.195Z,28.77
2023-02-07T17:35:17.593Z,26.08
2023-02-07T17:38:20.129Z,26.38
2023-02-07T17:41:22.246Z,29.33
2023-02-07T17:44:25.289Z,42.03
2023-02-07T17:47:27.610Z,32.28
2023-02-07T17:50:33.312Z,30.77
2023-02-07T17:53:35.880Z,32.77
2023-02-07T17:56:38.325Z,47.83
2023-02-07T17:59:40.464Z,65.53
2023-02-07T18:02:42.892Z,71.77
2023-02-07T18:05:45.043Z,93.60
2023-02-07T18:08:47.007Z,65.65
2023-02-07T18:11:49.098Z,55.38
2023-02-07T18:14:52.483Z,46.60
2023-02-07T18:17:54.491Z,45.42
2023-02-07T18:20:57.219Z,42.38
2023-02-07T18:23:59.759Z,41.27
2023-02-07T18:27:02.319Z,42.95
2023-02-07T18:30:05.190Z,45.33
2023-02-07T18:33:07.175Z,53.53
2023-02-07T18:36:09.423Z,43.65
2023-02-07T18:39:12.658Z,43.75
2023-02-07T18:42:17.615Z,67.60
2023-02-07T18:45:19.738Z,63.55
2023-02-07T18:48:22.283Z,57.22
2023-02-07T18:51:24.460Z,47.95
2023-02-07T18:54:26.982Z,38.43
2023-02-07T18:57:29.123Z,40.75
2023-02-07T19:00:31.575Z,39.05
2023-02-07T19:03:33.974Z,43.43
2023-02-07T19:06:35.987Z,46.40
2023-02-07T19:09:38.403Z,49.85
2023-02-07T19:12:40.448Z,53.83
2023-02-07T19:15:42.491Z,54.67
2023-02-07T19:18:44.840Z,57.95
2023-02-07T19:21:46.904Z,51.20
2023-02-07T19:24:49.054Z,51.33
2023-02-07T19:27:51.061Z,55.05
2023-02-07T19:30:53.636Z,53.88
2023-02-07T19:33:56.117Z,56.90
2023-02-07T19:36:58.233Z,63.15
2023-02-07T19:40:00.369Z,59.42
2023-02-07T19:43:02.917Z,53.33
2023-02-07T19:46:05.476Z,53.38
2023-02-07T19:49:07.625Z,52.40
2023-02-07T19:52:10.226Z,52.35
2023-02-07T19:55:12.284Z,49.63
2023-02-07T19:58:14.449Z,49.45
2023-02-07T20:01:16.644Z,54.30
2023-02-07T20:04:19.083Z,57.33
2023-02-07T20:07:22.303Z,56.13
2023-02-07T20:10:24.386Z,47.58
2023-02-07T20:13:26.598Z,48.38
2023-02-07T20:16:29.118Z,49.67
2023-02-07T20:19:31.313Z,44.92
2023-02-07T20:22:34.977Z,49.95
2023-02-07T20:25:37.783Z,50.80
2023-02-07T20:28:39.786Z,50.78
2023-02-07T20:31:42.469Z,47.47
2023-02-07T20:34:44.451Z,50.40
2023-02-07T20:37:46.827Z,45.70
2023-02-07T20:40:48.925Z,45.65
2023-02-07T20:43:50.837Z,48.45
2023-02-07T20:46:53.422Z,47.58
2023-02-07T20:49:57.513Z,48.00
2023-02-07T20:52:59.652Z,41.05
2023-02-07T20:56:05.864Z,49.70
2023-02-07T20:59:07.958Z,49.08
2023-02-07T21:02:10.283Z,50.25
2023-02-07T21:05:12.300Z,54.50
2023-02-07T21:08:14.366Z,54.80
2023-02-07T21:11:17.068Z,48.88
2023-02-07T21:14:19.856Z,49.80
2023-02-07T21:17:21.942Z,58.33
2023-02-07T21:20:23.905Z,55.35
2023-02-07T21:23:26.003Z,52.15
2023-02-07T21:26:28.206Z,52.10
2023-02-07T21:29:30.285Z,48.50
2023-02-07T21:32:32.300Z,46.95
2023-02-07T21:35:34.337Z,42.93
2023-02-07T21:38:36.594Z,44.63
2023-02-07T21:41:39.549Z,43.47
2023-02-07T21:44:41.680Z,40.58
2023-02-07T21:47:43.642Z,40.03
2023-02-07T21:50:45.592Z,42.22
2023-02-07T21:53:51.212Z,42.50
2023-02-07T21:56:53.336Z,42.20
2023-02-07T21:59:55.262Z,43.70
2023-02-07T22:02:57.407Z,42.92
2023-02-07T22:05:59.332Z,44.77
2023-02-07T22:09:01.862Z,44.38
2023-02-07T22:12:03.910Z,45.25
2023-02-07T22:15:06.167Z,41.03
2023-02-07T22:18:08.133Z,35.40
2023-02-07T22:21:13.577Z,33.38
2023-02-07T22:24:15.956Z,31.02
2023-02-07T22:27:18.013Z,31.47
2023-02-07T22:30:20.359Z,33.83
2023-02-07T22:33:22.488Z,31.15
2023-02-07T22:36:25.247Z,33.00
2023-02-07T22:39:27.245Z,27.55
2023-02-07T22:42:29.545Z,27.77
2023-02-07T22:45:32.153Z,29.20
2023-02-07T22:48:34.098Z,28.05
2023-02-07T22:51:36.971Z,29.95
2023-02-07T22:54:38.901Z,31.38
2023-02-07T22:57:41.372Z,33.07
2023-02-07T23:00:43.330Z,34.22
2023-02-07T23:03:45.456Z,28.52
2023-02-07T23:06:47.485Z,26.27
2023-02-07T23:09:49.674Z,26.63
2023-02-07T23:12:52.264Z,27.73
2023-02-07T23:15:54.479Z,26.98
2023-02-07T23:18:57.010Z,25.10
2023-02-07T23:21:59.733Z,27.08
2023-02-07T23:25:02.123Z,25.52
2023-02-07T23:28:04.726Z,25.43
2023-02-07T23:31:07.644Z,26.02
2023-02-07T23:34:09.857Z,24.70
2023-02-07T23:37:11.867Z,23.07
2023-02-07T23:40:14.379Z,23.60
2023-02-07T23:43:16.783Z,25.60
2023-02-07T23:46:19.224Z,21.20
2023-02-07T23:49:21.257Z,23.73
2023-02-07T23:52:23.362Z,24.67
2023-02-07T23:55:25.325Z,23.65
2023-02-07T23:58:27.466Z,23.63
